sensor_id;sensor_type;location;lat;lon;timestamp;P1;durP1;ratioP1;P2;durP2;ratioP2
8252;SDS011;61313;48.396;10.008;2023-11-21T00:00:12;6.97;;;2.60;;
8252;SDS011;61313;48.396;10.008;2023-11-21T00:02:39;6.47;;;2.90;;
8252;SDS011;61313;48.396;10.008;2023-11-21T00:05:08;8.30;;;3.73;;
8252;SDS011;61313;48.396;10.008;2023-11-21T00:07:35;6.70;;;3.10;;
8252;SDS011;61313;48.396;10.008;2023-11-21T00:10:03;6.40;;;2.77;;
8252;SDS011;61313;48.396;10.008;2023-11-21T00:12:30;6.67;;;2.83;;
8252;SDS011;61313;48.396;10.008;2023-11-21T00:14:56;7.53;;;2.60;;
8252;SDS011;61313;48.396;10.008;2023-11-21T00:17:22;6.17;;;3.27;;
8252;SDS011;61313;48.396;10.008;2023-11-21T00:19:47;4.53;;;2.50;;
8252;SDS011;61313;48.396;10.008;2023-11-21T00:22:12;6.00;;;2.33;;
8252;SDS011;61313;48.396;10.008;2023-11-21T00:24:38;6.80;;;3.00;;
8252;SDS011;61313;48.396;10.008;2023-11-21T00:27:03;3.93;;;2.40;;
8252;SDS011;61313;48.396;10.008;2023-11-21T00:29:28;8.03;;;2.80;;
8252;SDS011;61313;48.396;10.008;2023-11-21T00:31:54;7.80;;;2.40;;
8252;SDS011;61313;48.396;10.008;2023-11-21T00:34:19;5.93;;;2.53;;
8252;SDS011;61313;48.396;10.008;2023-11-21T00:36:45;6.33;;;3.17;;
8252;SDS011;61313;48.396;10.008;2023-11-21T00:39:10;6.07;;;2.83;;
8252;SDS011;61313;48.396;10.008;2023-11-21T00:41:36;5.00;;;2.63;;
8252;SDS011;61313;48.396;10.008;2023-11-21T00:44:02;4.43;;;3.13;;
8252;SDS011;61313;48.396;10.008;2023-11-21T00:46:28;5.90;;;3.03;;
8252;SDS011;61313;48.396;10.008;2023-11-21T00:48:54;4.97;;;2.80;;
8252;SDS011;61313;48.396;10.008;2023-11-21T00:51:20;5.70;;;2.30;;
8252;SDS011;61313;48.396;10.008;2023-11-21T00:53:47;10.53;;;3.27;;
8252;SDS011;61313;48.396;10.008;2023-11-21T00:56:13;7.40;;;2.60;;
8252;SDS011;61313;48.396;10.008;2023-11-21T00:58:39;3.80;;;2.10;;
8252;SDS011;61313;48.396;10.008;2023-11-21T01:01:08;6.17;;;3.60;;
8252;SDS011;61313;48.396;10.008;2023-11-21T01:03:34;7.40;;;3.10;;
8252;SDS011;61313;48.396;10.008;2023-11-21T01:05:59;4.67;;;2.40;;
8252;SDS011;61313;48.396;10.008;2023-11-21T01:08:25;4.83;;;2.53;;
8252;SDS011;61313;48.396;10.008;2023-11-21T01:10:50;7.57;;;3.40;;
8252;SDS011;61313;48.396;10.008;2023-11-21T01:13:16;13.60;;;2.70;;
8252;SDS011;61313;48.396;10.008;2023-11-21T01:15:41;9.33;;;2.90;;
8252;SDS011;61313;48.396;10.008;2023-11-21T01:18:07;6.00;;;2.37;;
8252;SDS011;61313;48.396;10.008;2023-11-21T01:20:33;5.67;;;3.77;;
8252;SDS011;61313;48.396;10.008;2023-11-21T01:22:59;9.60;;;3.23;;
8252;SDS011;61313;48.396;10.008;2023-11-21T01:25:25;12.97;;;2.60;;
8252;SDS011;61313;48.396;10.008;2023-11-21T01:27:51;4.00;;;2.20;;
8252;SDS011;61313;48.396;10.008;2023-11-21T01:30:16;5.57;;;2.33;;
8252;SDS011;61313;48.396;10.008;2023-11-21T01:32:42;4.50;;;2.80;;
8252;SDS011;61313;48.396;10.008;2023-11-21T01:35:08;9.50;;;3.00;;
8252;SDS011;61313;48.396;10.008;2023-11-21T01:37:35;10.03;;;3.07;;
8252;SDS011;61313;48.396;10.008;2023-11-21T01:40:00;8.53;;;4.43;;
8252;SDS011;61313;48.396;10.008;2023-11-21T01:42:26;7.53;;;2.23;;
8252;SDS011;61313;48.396;10.008;2023-11-21T01:44:52;4.90;;;2.33;;
8252;SDS011;61313;48.396;10.008;2023-11-21T01:47:19;6.70;;;3.30;;
8252;SDS011;61313;48.396;10.008;2023-11-21T01:49:46;5.83;;;2.53;;
8252;SDS011;61313;48.396;10.008;2023-11-21T01:52:12;6.07;;;2.30;;
8252;SDS011;61313;48.396;10.008;2023-11-21T01:54:38;6.13;;;2.83;;
8252;SDS011;61313;48.396;10.008;2023-11-21T01:57:04;4.83;;;2.50;;
8252;SDS011;61313;48.396;10.008;2023-11-21T01:59:35;8.50;;;4.77;;
8252;SDS011;61313;48.396;10.008;2023-11-21T02:02:05;4.83;;;2.20;;
8252;SDS011;61313;48.396;10.008;2023-11-21T02:04:34;6.70;;;2.53;;
8252;SDS011;61313;48.396;10.008;2023-11-21T02:07:01;5.53;;;2.77;;
8252;SDS011;61313;48.396;10.008;2023-11-21T02:09:30;3.60;;;2.70;;
8252;SDS011;61313;48.396;10.008;2023-11-21T02:11:56;5.87;;;2.23;;
8252;SDS011;61313;48.396;10.008;2023-11-21T02:14:23;3.27;;;2.20;;
8252;SDS011;61313;48.396;10.008;2023-11-21T02:16:50;9.57;;;2.20;;
8252;SDS011;61313;48.396;10.008;2023-11-21T02:19:20;3.70;;;1.90;;
8252;SDS011;61313;48.396;10.008;2023-11-21T02:21:50;7.40;;;3.13;;
8252;SDS011;61313;48.396;10.008;2023-11-21T02:24:18;13.20;;;2.80;;
8252;SDS011;61313;48.396;10.008;2023-11-21T02:26:44;6.70;;;2.40;;
8252;SDS011;61313;48.396;10.008;2023-11-21T02:29:11;3.57;;;2.03;;
8252;SDS011;61313;48.396;10.008;2023-11-21T02:31:38;5.20;;;2.23;;
8252;SDS011;61313;48.396;10.008;2023-11-21T02:34:12;6.87;;;1.83;;
8252;SDS011;61313;48.396;10.008;2023-11-21T02:36:41;9.73;;;2.03;;
8252;SDS011;61313;48.396;10.008;2023-11-21T02:39:07;4.70;;;2.70;;
8252;SDS011;61313;48.396;10.008;2023-11-21T02:41:33;5.40;;;2.20;;
8252;SDS011;61313;48.396;10.008;2023-11-21T02:43:59;4.67;;;1.67;;
8252;SDS011;61313;48.396;10.008;2023-11-21T02:46:25;3.77;;;1.90;;
8252;SDS011;61313;48.396;10.008;2023-11-21T02:48:51;9.47;;;2.03;;
8252;SDS011;61313;48.396;10.008;2023-11-21T02:51:18;4.40;;;2.50;;
8252;SDS011;61313;48.396;10.008;2023-11-21T02:53:44;6.93;;;2.37;;
8252;SDS011;61313;48.396;10.008;2023-11-21T02:56:11;8.00;;;2.13;;
8252;SDS011;61313;48.396;10.008;2023-11-21T02:58:37;4.80;;;2.10;;
8252;SDS011;61313;48.396;10.008;2023-11-21T03:01:02;8.43;;;1.70;;
8252;SDS011;61313;48.396;10.008;2023-11-21T03:03:32;6.83;;;2.43;;
8252;SDS011;61313;48.396;10.008;2023-11-21T03:05:57;4.70;;;2.10;;
8252;SDS011;61313;48.396;10.008;2023-11-21T03:08:23;6.93;;;2.57;;
8252;SDS011;61313;48.396;10.008;2023-11-21T03:10:48;3.43;;;1.90;;
8252;SDS011;61313;48.396;10.008;2023-11-21T03:13:13;4.07;;;2.00;;
8252;SDS011;61313;48.396;10.008;2023-11-21T03:15:39;8.43;;;2.20;;
8252;SDS011;61313;48.396;10.008;2023-11-21T03:18:04;4.00;;;1.80;;
8252;SDS011;61313;48.396;10.008;2023-11-21T03:20:30;4.73;;;1.80;;
8252;SDS011;61313;48.396;10.008;2023-11-21T03:22:55;4.30;;;2.30;;
8252;SDS011;61313;48.396;10.008;2023-11-21T03:25:20;5.80;;;3.20;;
8252;SDS011;61313;48.396;10.008;2023-11-21T03:27:48;4.47;;;2.03;;
8252;SDS011;61313;48.396;10.008;2023-11-21T03:30:14;3.27;;;1.97;;
8252;SDS011;61313;48.396;10.008;2023-11-21T03:32:40;6.20;;;2.00;;
8252;SDS011;61313;48.396;10.008;2023-11-21T03:35:05;4.10;;;1.60;;
8252;SDS011;61313;48.396;10.008;2023-11-21T03:37:31;3.93;;;1.80;;
8252;SDS011;61313;48.396;10.008;2023-11-21T03:39:56;3.33;;;1.50;;
8252;SDS011;61313;48.396;10.008;2023-11-21T03:42:22;7.13;;;1.80;;
8252;SDS011;61313;48.396;10.008;2023-11-21T03:44:47;5.53;;;1.50;;
8252;SDS011;61313;48.396;10.008;2023-11-21T03:47:12;3.10;;;1.80;;
8252;SDS011;61313;48.396;10.008;2023-11-21T03:49:38;4.53;;;2.00;;
8252;SDS011;61313;48.396;10.008;2023-11-21T03:52:04;8.23;;;2.20;;
8252;SDS011;61313;48.396;10.008;2023-11-21T03:54:29;8.33;;;2.30;;
8252;SDS011;61313;48.396;10.008;2023-11-21T03:56:55;4.67;;;1.80;;
8252;SDS011;61313;48.396;10.008;2023-11-21T03:59:21;3.80;;;2.27;;
8252;SDS011;61313;48.396;10.008;2023-11-21T04:01:49;3.63;;;1.50;;
8252;SDS011;61313;48.396;10.008;2023-11-21T04:04:15;3.47;;;1.53;;
8252;SDS011;61313;48.396;10.008;2023-11-21T04:06:40;2.50;;;1.73;;
8252;SDS011;61313;48.396;10.008;2023-11-21T04:09:06;6.20;;;2.00;;
8252;SDS011;61313;48.396;10.008;2023-11-21T04:11:31;4.73;;;2.13;;
8252;SDS011;61313;48.396;10.008;2023-11-21T04:13:57;2.90;;;1.50;;
8252;SDS011;61313;48.396;10.008;2023-11-21T04:16:22;2.90;;;1.40;;
8252;SDS011;61313;48.396;10.008;2023-11-21T04:18:47;4.53;;;1.57;;
8252;SDS011;61313;48.396;10.008;2023-11-21T04:21:13;5.47;;;2.10;;
8252;SDS011;61313;48.396;10.008;2023-11-21T04:23:38;4.30;;;2.13;;
8252;SDS011;61313;48.396;10.008;2023-11-21T04:26:04;2.43;;;1.37;;
8252;SDS011;61313;48.396;10.008;2023-11-21T04:28:30;7.90;;;1.73;;
8252;SDS011;61313;48.396;10.008;2023-11-21T04:30:55;4.97;;;1.80;;
8252;SDS011;61313;48.396;10.008;2023-11-21T04:33:21;2.73;;;1.73;;
8252;SDS011;61313;48.396;10.008;2023-11-21T04:35:47;3.87;;;1.80;;
8252;SDS011;61313;48.396;10.008;2023-11-21T04:38:13;3.87;;;1.67;;
8252;SDS011;61313;48.396;10.008;2023-11-21T04:40:38;7.43;;;1.80;;
8252;SDS011;61313;48.396;10.008;2023-11-21T04:43:04;6.30;;;1.80;;
8252;SDS011;61313;48.396;10.008;2023-11-21T04:45:29;5.00;;;1.40;;
8252;SDS011;61313;48.396;10.008;2023-11-21T04:47:55;3.93;;;1.40;;
8252;SDS011;61313;48.396;10.008;2023-11-21T04:50:21;4.07;;;1.87;;
8252;SDS011;61313;48.396;10.008;2023-11-21T04:52:46;9.40;;;1.63;;
8252;SDS011;61313;48.396;10.008;2023-11-21T04:55:12;6.03;;;2.87;;
8252;SDS011;61313;48.396;10.008;2023-11-21T04:57:37;3.83;;;2.10;;
8252;SDS011;61313;48.396;10.008;2023-11-21T05:00:03;2.57;;;1.53;;
8252;SDS011;61313;48.396;10.008;2023-11-21T05:02:31;5.93;;;1.93;;
8252;SDS011;61313;48.396;10.008;2023-11-21T05:05:03;5.97;;;1.57;;
8252;SDS011;61313;48.396;10.008;2023-11-21T05:07:30;4.97;;;2.20;;
8252;SDS011;61313;48.396;10.008;2023-11-21T05:09:57;4.00;;;2.43;;
8252;SDS011;61313;48.396;10.008;2023-11-21T05:12:23;3.93;;;2.10;;
8252;SDS011;61313;48.396;10.008;2023-11-21T05:14:49;6.23;;;2.37;;
8252;SDS011;61313;48.396;10.008;2023-11-21T05:17:15;4.30;;;1.90;;
8252;SDS011;61313;48.396;10.008;2023-11-21T05:19:40;3.20;;;1.60;;
8252;SDS011;61313;48.396;10.008;2023-11-21T05:22:06;4.40;;;2.07;;
8252;SDS011;61313;48.396;10.008;2023-11-21T05:24:32;3.80;;;1.90;;
8252;SDS011;61313;48.396;10.008;2023-11-21T05:26:58;4.70;;;2.33;;
8252;SDS011;61313;48.396;10.008;2023-11-21T05:29:24;3.67;;;2.23;;
8252;SDS011;61313;48.396;10.008;2023-11-21T05:31:50;4.87;;;2.23;;
8252;SDS011;61313;48.396;10.008;2023-11-21T05:34:16;6.43;;;2.70;;
8252;SDS011;61313;48.396;10.008;2023-11-21T05:36:42;5.10;;;2.20;;
8252;SDS011;61313;48.396;10.008;2023-11-21T05:39:10;4.40;;;2.20;;
8252;SDS011;61313;48.396;10.008;2023-11-21T05:41:36;5.53;;;2.20;;
8252;SDS011;61313;48.396;10.008;2023-11-21T05:44:01;4.17;;;2.00;;
8252;SDS011;61313;48.396;10.008;2023-11-21T05:46:27;3.43;;;1.83;;
8252;SDS011;61313;48.396;10.008;2023-11-21T05:48:52;7.43;;;2.50;;
8252;SDS011;61313;48.396;10.008;2023-11-21T05:51:18;4.30;;;2.37;;
8252;SDS011;61313;48.396;10.008;2023-11-21T05:53:43;4.93;;;2.27;;
8252;SDS011;61313;48.396;10.008;2023-11-21T05:56:09;3.27;;;2.10;;
8252;SDS011;61313;48.396;10.008;2023-11-21T05:58:34;6.90;;;2.27;;
8252;SDS011;61313;48.396;10.008;2023-11-21T06:01:00;4.07;;;2.23;;
8252;SDS011;61313;48.396;10.008;2023-11-21T06:03:25;6.33;;;2.77;;
8252;SDS011;61313;48.396;10.008;2023-11-21T06:05:50;3.93;;;1.90;;
8252;SDS011;61313;48.396;10.008;2023-11-21T06:08:16;4.90;;;1.90;;
8252;SDS011;61313;48.396;10.008;2023-11-21T06:10:42;2.30;;;1.70;;
8252;SDS011;61313;48.396;10.008;2023-11-21T06:13:08;12.00;;;6.43;;
8252;SDS011;61313;48.396;10.008;2023-11-21T06:15:35;3.60;;;2.60;;
8252;SDS011;61313;48.396;10.008;2023-11-21T06:18:01;4.00;;;2.60;;
8252;SDS011;61313;48.396;10.008;2023-11-21T06:20:26;7.90;;;3.50;;
8252;SDS011;61313;48.396;10.008;2023-11-21T06:22:52;10.20;;;5.70;;
8252;SDS011;61313;48.396;10.008;2023-11-21T06:25:17;5.77;;;2.67;;
8252;SDS011;61313;48.396;10.008;2023-11-21T06:27:44;9.20;;;3.50;;
8252;SDS011;61313;48.396;10.008;2023-11-21T06:30:10;7.47;;;3.30;;
8252;SDS011;61313;48.396;10.008;2023-11-21T06:32:38;7.20;;;3.00;;
8252;SDS011;61313;48.396;10.008;2023-11-21T06:35:05;3.93;;;2.37;;
8252;SDS011;61313;48.396;10.008;2023-11-21T06:37:31;7.57;;;3.60;;
8252;SDS011;61313;48.396;10.008;2023-11-21T06:39:57;2.50;;;1.93;;
8252;SDS011;61313;48.396;10.008;2023-11-21T06:42:24;2.70;;;2.20;;
8252;SDS011;61313;48.396;10.008;2023-11-21T06:44:50;3.80;;;2.37;;
8252;SDS011;61313;48.396;10.008;2023-11-21T06:47:21;4.03;;;2.07;;
8252;SDS011;61313;48.396;10.008;2023-11-21T06:49:50;7.63;;;3.00;;
8252;SDS011;61313;48.396;10.008;2023-11-21T06:52:16;7.40;;;3.67;;
8252;SDS011;61313;48.396;10.008;2023-11-21T06:54:41;5.57;;;1.87;;
8252;SDS011;61313;48.396;10.008;2023-11-21T06:57:07;41.07;;;5.90;;
8252;SDS011;61313;48.396;10.008;2023-11-21T06:59:32;19.33;;;4.53;;
8252;SDS011;61313;48.396;10.008;2023-11-21T07:01:58;23.33;;;4.40;;
8252;SDS011;61313;48.396;10.008;2023-11-21T07:04:23;8.40;;;2.10;;
8252;SDS011;61313;48.396;10.008;2023-11-21T07:06:50;19.73;;;3.20;;
8252;SDS011;61313;48.396;10.008;2023-11-21T07:09:18;5.40;;;2.63;;
8252;SDS011;61313;48.396;10.008;2023-11-21T07:11:47;6.17;;;2.20;;
8252;SDS011;61313;48.396;10.008;2023-11-21T07:14:13;6.80;;;2.83;;
8252;SDS011;61313;48.396;10.008;2023-11-21T07:16:39;4.10;;;2.30;;
8252;SDS011;61313;48.396;10.008;2023-11-21T07:19:04;3.63;;;2.03;;
8252;SDS011;61313;48.396;10.008;2023-11-21T07:21:33;5.67;;;2.90;;
8252;SDS011;61313;48.396;10.008;2023-11-21T07:24:02;3.87;;;2.67;;
8252;SDS011;61313;48.396;10.008;2023-11-21T07:26:28;4.23;;;2.80;;
8252;SDS011;61313;48.396;10.008;2023-11-21T07:28:54;5.83;;;2.40;;
8252;SDS011;61313;48.396;10.008;2023-11-21T07:31:21;2.73;;;2.10;;
8252;SDS011;61313;48.396;10.008;2023-11-21T07:33:47;4.73;;;2.77;;
8252;SDS011;61313;48.396;10.008;2023-11-21T07:36:13;6.30;;;3.70;;
8252;SDS011;61313;48.396;10.008;2023-11-21T07:38:39;17.10;;;4.20;;
8252;SDS011;61313;48.396;10.008;2023-11-21T07:41:05;25.90;;;5.53;;
8252;SDS011;61313;48.396;10.008;2023-11-21T07:43:32;14.33;;;3.60;;
8252;SDS011;61313;48.396;10.008;2023-11-21T07:46:03;5.83;;;2.90;;
8252;SDS011;61313;48.396;10.008;2023-11-21T07:48:29;6.43;;;2.70;;
8252;SDS011;61313;48.396;10.008;2023-11-21T07:50:56;4.53;;;2.87;;
8252;SDS011;61313;48.396;10.008;2023-11-21T07:53:22;3.80;;;2.63;;
8252;SDS011;61313;48.396;10.008;2023-11-21T07:55:47;4.93;;;3.70;;
8252;SDS011;61313;48.396;10.008;2023-11-21T07:58:12;4.87;;;2.40;;
8252;SDS011;61313;48.396;10.008;2023-11-21T08:00:38;5.83;;;1.93;;
8252;SDS011;61313;48.396;10.008;2023-11-21T08:03:04;3.17;;;2.20;;
8252;SDS011;61313;48.396;10.008;2023-11-21T08:05:31;10.00;;;2.80;;
8252;SDS011;61313;48.396;10.008;2023-11-21T08:07:56;5.10;;;2.57;;
8252;SDS011;61313;48.396;10.008;2023-11-21T08:10:22;2.30;;;1.93;;
8252;SDS011;61313;48.396;10.008;2023-11-21T08:12:47;3.33;;;2.40;;
8252;SDS011;61313;48.396;10.008;2023-11-21T08:15:13;6.10;;;2.77;;
8252;SDS011;61313;48.396;10.008;2023-11-21T08:17:39;6.30;;;2.30;;
8252;SDS011;61313;48.396;10.008;2023-11-21T08:20:05;4.50;;;2.67;;
8252;SDS011;61313;48.396;10.008;2023-11-21T08:22:31;12.50;;;3.20;;
8252;SDS011;61313;48.396;10.008;2023-11-21T08:24:57;3.07;;;2.20;;
8252;SDS011;61313;48.396;10.008;2023-11-21T08:27:23;4.07;;;2.80;;
8252;SDS011;61313;48.396;10.008;2023-11-21T08:29:48;2.90;;;2.27;;
8252;SDS011;61313;48.396;10.008;2023-11-21T08:32:13;3.53;;;2.50;;
8252;SDS011;61313;48.396;10.008;2023-11-21T08:34:40;2.90;;;2.60;;
8252;SDS011;61313;48.396;10.008;2023-11-21T08:37:08;4.33;;;2.67;;
8252;SDS011;61313;48.396;10.008;2023-11-21T08:39:33;5.53;;;3.77;;
8252;SDS011;61313;48.396;10.008;2023-11-21T08:41:59;6.10;;;2.70;;
8252;SDS011;61313;48.396;10.008;2023-11-21T08:44:24;9.97;;;2.60;;
8252;SDS011;61313;48.396;10.008;2023-11-21T08:46:50;7.10;;;1.90;;
8252;SDS011;61313;48.396;10.008;2023-11-21T08:49:15;3.57;;;2.70;;
8252;SDS011;61313;48.396;10.008;2023-11-21T08:51:42;8.27;;;2.80;;
8252;SDS011;61313;48.396;10.008;2023-11-21T08:54:09;15.77;;;3.43;;
8252;SDS011;61313;48.396;10.008;2023-11-21T08:56:35;11.53;;;3.17;;
8252;SDS011;61313;48.396;10.008;2023-11-21T08:59:00;14.60;;;3.50;;
8252;SDS011;61313;48.396;10.008;2023-11-21T09:01:27;7.53;;;3.50;;
8252;SDS011;61313;48.396;10.008;2023-11-21T09:03:57;4.53;;;2.80;;
8252;SDS011;61313;48.396;10.008;2023-11-21T09:06:22;8.10;;;3.23;;
8252;SDS011;61313;48.396;10.008;2023-11-21T09:08:48;4.53;;;3.00;;
8252;SDS011;61313;48.396;10.008;2023-11-21T09:11:13;7.50;;;3.17;;
8252;SDS011;61313;48.396;10.008;2023-11-21T09:13:39;6.70;;;3.20;;
8252;SDS011;61313;48.396;10.008;2023-11-21T09:16:04;6.67;;;3.53;;
8252;SDS011;61313;48.396;10.008;2023-11-21T09:18:30;4.87;;;3.33;;
8252;SDS011;61313;48.396;10.008;2023-11-21T09:20:56;4.33;;;3.30;;
8252;SDS011;61313;48.396;10.008;2023-11-21T09:23:21;5.17;;;4.70;;
8252;SDS011;61313;48.396;10.008;2023-11-21T09:25:47;4.00;;;3.20;;
8252;SDS011;61313;48.396;10.008;2023-11-21T09:28:15;7.00;;;3.60;;
8252;SDS011;61313;48.396;10.008;2023-11-21T09:30:40;4.00;;;3.53;;
8252;SDS011;61313;48.396;10.008;2023-11-21T09:33:06;4.17;;;3.77;;
8252;SDS011;61313;48.396;10.008;2023-11-21T09:35:31;5.13;;;2.80;;
8252;SDS011;61313;48.396;10.008;2023-11-21T09:37:57;6.13;;;4.10;;
8252;SDS011;61313;48.396;10.008;2023-11-21T09:40:23;7.60;;;4.30;;
8252;SDS011;61313;48.396;10.008;2023-11-21T09:45:27;6.77;;;3.63;;
8252;SDS011;61313;48.396;10.008;2023-11-21T09:47:54;3.80;;;3.30;;
8252;SDS011;61313;48.396;10.008;2023-11-21T09:50:21;6.17;;;3.60;;
8252;SDS011;61313;48.396;10.008;2023-11-21T09:55:50;14.30;;;3.80;;
8252;SDS011;61313;48.396;10.008;2023-11-21T09:58:17;6.90;;;3.50;;
8252;SDS011;61313;48.396;10.008;2023-11-21T10:00:47;17.53;;;3.97;;
8252;SDS011;61313;48.396;10.008;2023-11-21T10:03:13;5.40;;;3.50;;
8252;SDS011;61313;48.396;10.008;2023-11-21T10:05:42;13.57;;;4.30;;
8252;SDS011;61313;48.396;10.008;2023-11-21T10:08:10;7.43;;;3.63;;
8252;SDS011;61313;48.396;10.008;2023-11-21T10:10:37;3.13;;;2.77;;
8252;SDS011;61313;48.396;10.008;2023-11-21T10:13:06;8.00;;;3.87;;
8252;SDS011;61313;48.396;10.008;2023-11-21T10:15:36;9.30;;;4.00;;
8252;SDS011;61313;48.396;10.008;2023-11-21T10:18:02;9.13;;;4.70;;
8252;SDS011;61313;48.396;10.008;2023-11-21T10:20:28;8.90;;;3.93;;
8252;SDS011;61313;48.396;10.008;2023-11-21T10:22:55;5.43;;;3.63;;
8252;SDS011;61313;48.396;10.008;2023-11-21T10:25:21;9.40;;;5.90;;
8252;SDS011;61313;48.396;10.008;2023-11-21T10:27:48;10.93;;;4.80;;
8252;SDS011;61313;48.396;10.008;2023-11-21T10:30:16;13.77;;;3.90;;
8252;SDS011;61313;48.396;10.008;2023-11-21T10:32:43;6.63;;;3.10;;
8252;SDS011;61313;48.396;10.008;2023-11-21T10:35:08;8.80;;;3.90;;
8252;SDS011;61313;48.396;10.008;2023-11-21T10:37:38;7.50;;;3.23;;
8252;SDS011;61313;48.396;10.008;2023-11-21T10:40:10;6.20;;;3.10;;
8252;SDS011;61313;48.396;10.008;2023-11-21T10:42:37;5.27;;;3.00;;
8252;SDS011;61313;48.396;10.008;2023-11-21T10:45:04;9.47;;;4.90;;
8252;SDS011;61313;48.396;10.008;2023-11-21T10:47:36;4.90;;;2.93;;
8252;SDS011;61313;48.396;10.008;2023-11-21T10:50:03;10.33;;;2.77;;
8252;SDS011;61313;48.396;10.008;2023-11-21T10:52:29;11.13;;;2.80;;
8252;SDS011;61313;48.396;10.008;2023-11-21T10:54:54;6.67;;;2.40;;
8252;SDS011;61313;48.396;10.008;2023-11-21T10:57:20;15.43;;;3.20;;
8252;SDS011;61313;48.396;10.008;2023-11-21T10:59:48;7.53;;;2.63;;
8252;SDS011;61313;48.396;10.008;2023-11-21T11:04:46;7.47;;;2.50;;
8252;SDS011;61313;48.396;10.008;2023-11-21T11:07:13;3.73;;;1.60;;
8252;SDS011;61313;48.396;10.008;2023-11-21T11:09:41;3.10;;;1.70;;
8252;SDS011;61313;48.396;10.008;2023-11-21T11:12:06;4.63;;;2.03;;
8252;SDS011;61313;48.396;10.008;2023-11-21T11:14:34;9.10;;;2.13;;
8252;SDS011;61313;48.396;10.008;2023-11-21T11:17:01;7.67;;;2.37;;
8252;SDS011;61313;48.396;10.008;2023-11-21T11:19:28;8.17;;;2.63;;
8252;SDS011;61313;48.396;10.008;2023-11-21T11:24:51;7.57;;;2.70;;
8252;SDS011;61313;48.396;10.008;2023-11-21T11:32:43;1.70;;;1.20;;
8252;SDS011;61313;48.396;10.008;2023-11-21T11:37:58;5.13;;;1.73;;
8252;SDS011;61313;48.396;10.008;2023-11-21T11:40:25;6.43;;;1.47;;
8252;SDS011;61313;48.396;10.008;2023-11-21T11:43:03;5.07;;;1.77;;
8252;SDS011;61313;48.396;10.008;2023-11-21T11:45:32;3.60;;;1.70;;
8252;SDS011;61313;48.396;10.008;2023-11-21T11:47:59;5.07;;;1.77;;
8252;SDS011;61313;48.396;10.008;2023-11-21T11:50:25;4.50;;;1.80;;
8252;SDS011;61313;48.396;10.008;2023-11-21T11:52:55;4.87;;;1.87;;
8252;SDS011;61313;48.396;10.008;2023-11-21T11:55:36;2.73;;;1.23;;
8252;SDS011;61313;48.396;10.008;2023-11-21T11:58:04;9.10;;;2.70;;
8252;SDS011;61313;48.396;10.008;2023-11-21T12:00:34;9.17;;;2.33;;
8252;SDS011;61313;48.396;10.008;2023-11-21T12:03:03;6.67;;;2.00;;
8252;SDS011;61313;48.396;10.008;2023-11-21T12:05:31;3.07;;;1.00;;
8252;SDS011;61313;48.396;10.008;2023-11-21T12:08:09;3.03;;;1.33;;
8252;SDS011;61313;48.396;10.008;2023-11-21T12:10:35;2.80;;;1.03;;
8252;SDS011;61313;48.396;10.008;2023-11-21T12:13:06;1.43;;;1.10;;
8252;SDS011;61313;48.396;10.008;2023-11-21T12:15:33;3.57;;;1.10;;
8252;SDS011;61313;48.396;10.008;2023-11-21T12:18:00;2.13;;;1.20;;
8252;SDS011;61313;48.396;10.008;2023-11-21T12:20:25;7.83;;;1.40;;
8252;SDS011;61313;48.396;10.008;2023-11-21T12:22:53;2.50;;;1.13;;
8252;SDS011;61313;48.396;10.008;2023-11-21T12:25:21;12.17;;;1.70;;
8252;SDS011;61313;48.396;10.008;2023-11-21T12:27:48;12.73;;;2.30;;
8252;SDS011;61313;48.396;10.008;2023-11-21T12:30:16;18.93;;;3.43;;
8252;SDS011;61313;48.396;10.008;2023-11-21T12:32:43;24.60;;;2.20;;
8252;SDS011;61313;48.396;10.008;2023-11-21T12:35:11;3.33;;;1.23;;
8252;SDS011;61313;48.396;10.008;2023-11-21T12:37:40;5.30;;;1.10;;
8252;SDS011;61313;48.396;10.008;2023-11-21T12:40:09;1.60;;;1.13;;
8252;SDS011;61313;48.396;10.008;2023-11-21T12:42:37;1.27;;;0.90;;
8252;SDS011;61313;48.396;10.008;2023-11-21T12:47:42;2.30;;;1.20;;
8252;SDS011;61313;48.396;10.008;2023-11-21T12:50:09;3.70;;;1.70;;
8252;SDS011;61313;48.396;10.008;2023-11-21T12:52:44;9.27;;;2.13;;
8252;SDS011;61313;48.396;10.008;2023-11-21T12:55:16;3.00;;;0.90;;
8252;SDS011;61313;48.396;10.008;2023-11-21T12:57:47;3.13;;;1.30;;
8252;SDS011;61313;48.396;10.008;2023-11-21T13:00:32;5.43;;;1.97;;
8252;SDS011;61313;48.396;10.008;2023-11-21T13:03:02;1.30;;;1.10;;
8252;SDS011;61313;48.396;10.008;2023-11-21T13:05:29;2.67;;;1.50;;
8252;SDS011;61313;48.396;10.008;2023-11-21T13:07:57;5.70;;;1.30;;
8252;SDS011;61313;48.396;10.008;2023-11-21T13:10:25;12.60;;;1.77;;
8252;SDS011;61313;48.396;10.008;2023-11-21T13:12:55;1.70;;;0.80;;
8252;SDS011;61313;48.396;10.008;2023-11-21T13:15:25;1.40;;;0.90;;
8252;SDS011;61313;48.396;10.008;2023-11-21T13:17:52;2.47;;;0.90;;
8252;SDS011;61313;48.396;10.008;2023-11-21T13:20:18;3.87;;;1.20;;
8252;SDS011;61313;48.396;10.008;2023-11-21T13:22:55;2.27;;;0.90;;
8252;SDS011;61313;48.396;10.008;2023-11-21T13:25:24;1.50;;;1.13;;
8252;SDS011;61313;48.396;10.008;2023-11-21T13:27:56;2.47;;;0.97;;
8252;SDS011;61313;48.396;10.008;2023-11-21T13:30:25;1.53;;;1.00;;
8252;SDS011;61313;48.396;10.008;2023-11-21T13:32:52;1.73;;;1.27;;
8252;SDS011;61313;48.396;10.008;2023-11-21T13:35:27;2.83;;;2.10;;
8252;SDS011;61313;48.396;10.008;2023-11-21T13:37:57;1.23;;;1.10;;
8252;SDS011;61313;48.396;10.008;2023-11-21T13:40:29;2.60;;;0.90;;
8252;SDS011;61313;48.396;10.008;2023-11-21T13:42:54;12.43;;;1.50;;
8252;SDS011;61313;48.396;10.008;2023-11-21T13:45:23;1.60;;;1.37;;
8252;SDS011;61313;48.396;10.008;2023-11-21T13:47:49;4.13;;;1.60;;
8252;SDS011;61313;48.396;10.008;2023-11-21T13:50:22;4.83;;;1.10;;
8252;SDS011;61313;48.396;10.008;2023-11-21T13:52:49;2.73;;;1.30;;
8252;SDS011;61313;48.396;10.008;2023-11-21T13:55:19;10.77;;;2.20;;
8252;SDS011;61313;48.396;10.008;2023-11-21T13:57:46;13.80;;;2.13;;
8252;SDS011;61313;48.396;10.008;2023-11-21T14:00:15;4.00;;;2.00;;
8252;SDS011;61313;48.396;10.008;2023-11-21T14:02:59;8.40;;;1.70;;
8252;SDS011;61313;48.396;10.008;2023-11-21T14:05:28;3.53;;;1.43;;
8252;SDS011;61313;48.396;10.008;2023-11-21T14:07:57;1.53;;;1.10;;
8252;SDS011;61313;48.396;10.008;2023-11-21T14:10:30;12.27;;;1.63;;
8252;SDS011;61313;48.396;10.008;2023-11-21T14:13:05;6.73;;;1.60;;
8252;SDS011;61313;48.396;10.008;2023-11-21T14:15:31;11.30;;;1.70;;
8252;SDS011;61313;48.396;10.008;2023-11-21T14:17:58;4.60;;;1.60;;
8252;SDS011;61313;48.396;10.008;2023-11-21T14:20:24;7.03;;;1.60;;
8252;SDS011;61313;48.396;10.008;2023-11-21T14:22:50;2.97;;;1.70;;
8252;SDS011;61313;48.396;10.008;2023-11-21T14:25:16;4.07;;;2.10;;
8252;SDS011;61313;48.396;10.008;2023-11-21T14:27:42;1.80;;;1.30;;
8252;SDS011;61313;48.396;10.008;2023-11-21T14:30:08;3.20;;;1.73;;
8252;SDS011;61313;48.396;10.008;2023-11-21T14:32:37;1.63;;;1.50;;
8252;SDS011;61313;48.396;10.008;2023-11-21T14:35:03;2.60;;;1.73;;
8252;SDS011;61313;48.396;10.008;2023-11-21T14:37:29;3.43;;;1.40;;
8252;SDS011;61313;48.396;10.008;2023-11-21T14:39:54;2.57;;;1.40;;
8252;SDS011;61313;48.396;10.008;2023-11-21T14:42:20;1.30;;;1.20;;
8252;SDS011;61313;48.396;10.008;2023-11-21T14:44:50;4.80;;;2.37;;
8252;SDS011;61313;48.396;10.008;2023-11-21T14:47:16;7.23;;;2.07;;
8252;SDS011;61313;48.396;10.008;2023-11-21T14:49:44;2.70;;;1.73;;
8252;SDS011;61313;48.396;10.008;2023-11-21T14:52:24;16.60;;;3.80;;
8252;SDS011;61313;48.396;10.008;2023-11-21T14:55:01;4.57;;;1.80;;
8252;SDS011;61313;48.396;10.008;2023-11-21T14:57:46;2.00;;;1.60;;
8252;SDS011;61313;48.396;10.008;2023-11-21T15:00:18;6.30;;;3.23;;
8252;SDS011;61313;48.396;10.008;2023-11-21T15:03:16;2.83;;;2.20;;
8252;SDS011;61313;48.396;10.008;2023-11-21T15:06:11;6.53;;;3.00;;